Time;durP1;ratioP1;P1;durP2;ratioP2;P2;SDS_P1;SDS_P2;PMS_P1;PMS_P2;Temp;Humidity;BMP_temperature;BMP_pressure;BME280_temperature;BME280_humidity;BME280_pressure;Samples;Min_cycle;Max_cycle;Signal;HPM_P1;HPM_P2
2023/04/28 00:00:27;;;;;;;0.10;0.10;;;14.50;99.90;;;;;;5033903;28;20024;-77
2023/04/28 00:02:53;;;;;;;0.20;0.10;;;14.50;99.90;;;;;;5063287;28;20028;-77
2023/04/28 00:05:19;;;;;;;0.10;0.10;;;14.40;99.90;;;;;;5061152;28;20077;-77
2023/04/28 00:07:45;;;;;;;0.20;0.20;;;14.40;99.90;;;;;;5063213;28;20036;-76
2023/04/28 00:10:11;;;;;;;0.10;0.10;;;14.40;99.90;;;;;;5059815;28;20033;-77
2023/04/28 00:12:37;;;;;;;0.23;0.23;;;14.30;99.90;;;;;;5040080;28;20094;-77
2023/04/28 00:15:03;;;;;;;0.10;0.10;;;14.40;99.90;;;;;;5053761;28;20040;-76
2023/04/28 00:17:28;;;;;;;0.00;0.00;;;14.40;99.90;;;;;;5057090;28;20457;-77
2023/04/28 00:19:54;;;;;;;0.20;0.17;;;14.40;99.90;;;;;;5059377;28;20029;-76
2023/04/28 00:22:22;;;;;;;0.13;0.13;;;14.40;99.90;;;;;;5062621;28;20023;-77
2023/04/28 00:24:48;;;;;;;0.10;0.10;;;14.30;99.90;;;;;;5053107;28;20506;-76
2023/04/28 00:27:14;;;;;;;0.10;0.10;;;14.30;99.90;;;;;;5058630;28;20020;-78
2023/04/28 00:29:40;;;;;;;0.03;0.03;;;14.30;99.90;;;;;;5054717;28;20029;-76
2023/04/28 00:32:05;;;;;;;0.00;0.00;;;14.20;99.90;;;;;;5058708;28;20028;-76
2023/04/28 00:34:36;;;;;;;0.00;0.00;;;14.30;99.90;;;;;;5052825;28;20075;-77
2023/04/28 00:37:03;;;;;;;0.20;0.20;;;14.20;99.90;;;;;;5050486;28;20081;-76
2023/04/28 00:39:28;;;;;;;;;;;14.20;99.90;;;;;;5056115;28;20475;-76
2023/04/28 00:41:54;;;;;;;0.20;0.20;;;14.20;99.90;;;;;;5060249;28;19989;-76
2023/04/28 00:44:20;;;;;;;0.00;0.00;;;14.20;99.90;;;;;;5047637;28;20029;-76
2023/04/28 00:46:46;;;;;;;0.00;0.00;;;14.20;99.90;;;;;;5060238;28;20399;-76
2023/04/28 00:49:14;;;;;;;0.00;0.00;;;14.20;99.90;;;;;;5061041;28;20351;-76
2023/04/28 00:51:40;;;;;;;1.67;0.55;;;14.20;99.90;;;;;;5062188;28;20031;-76
2023/04/28 00:54:06;;;;;;;0.10;0.10;;;14.00;99.90;;;;;;5054119;28;20049;-76
2023/04/28 00:56:33;;;;;;;0.00;0.00;;;14.00;99.90;;;;;;5064056;28;20480;-76
2023/04/28 00:58:59;;;;;;;0.40;0.40;;;13.90;99.90;;;;;;5061337;28;20033;-76
2023/04/28 01:01:24;;;;;;;0.35;0.35;;;14.00;99.90;;;;;;5058866;28;20021;-76
2023/04/28 01:03:50;;;;;;;0.10;0.10;;;13.90;99.90;;;;;;5041705;28;20486;-75
2023/04/28 01:06:16;;;;;;;0.00;0.00;;;14.00;99.90;;;;;;5060712;28;20077;-76
2023/04/28 01:08:46;;;;;;;0.00;0.00;;;13.90;99.90;;;;;;5058601;28;20557;-77
2023/04/28 01:11:14;;;;;;;0.20;0.20;;;13.90;99.90;;;;;;5055373;28;20033;-77
2023/04/28 01:13:40;;;;;;;0.20;0.20;;;13.80;99.90;;;;;;5044061;28;20085;-76
2023/04/28 01:16:06;;;;;;;0.20;0.20;;;13.80;99.90;;;;;;5054382;28;20431;-76
2023/04/28 01:18:33;;;;;;;0.20;0.20;;;13.80;99.90;;;;;;5057002;28;20040;-76
2023/04/28 01:20:59;;;;;;;;;;;13.80;99.90;;;;;;5058968;28;20028;-76
2023/04/28 01:23:24;;;;;;;0.10;0.10;;;13.90;99.90;;;;;;5058820;28;19986;-75
2023/04/28 01:25:50;;;;;;;0.00;0.00;;;13.90;99.90;;;;;;5054702;28;20020;-75
2023/04/28 01:28:16;;;;;;;0.10;0.10;;;13.80;99.90;;;;;;5059818;28;20040;-76
2023/04/28 01:30:42;;;;;;;0.30;0.30;;;13.80;99.90;;;;;;5060267;28;20107;-76
2023/04/28 01:33:07;;;;;;;0.10;0.10;;;13.70;99.90;;;;;;5056040;28;20025;-76
2023/04/28 01:35:33;;;;;;;0.00;0.00;;;13.70;99.90;;;;;;5052556;28;20033;-76
2023/04/28 01:37:59;;;;;;;0.13;0.13;;;13.70;99.90;;;;;;5054559;28;20106;-76
2023/04/28 01:40:25;;;;;;;0.10;0.10;;;13.70;99.90;;;;;;5048977;28;20036;-75
2023/04/28 01:42:50;;;;;;;0.10;0.10;;;13.70;99.90;;;;;;5052113;28;20271;-76
2023/04/28 01:45:16;;;;;;;0.40;0.40;;;13.70;99.90;;;;;;5051953;28;20028;-76
2023/04/28 01:47:42;;;;;;;0.30;0.30;;;13.60;99.90;;;;;;5058946;28;20029;-76
2023/04/28 01:50:08;;;;;;;0.10;0.10;;;13.60;99.90;;;;;;5050907;28;20205;-75
2023/04/28 01:52:33;;;;;;;0.20;0.20;;;13.60;99.90;;;;;;5051630;28;20770;-75
2023/04/28 01:54:59;;;;;;;0.20;0.20;;;13.60;99.90;;;;;;5050965;28;20041;-76
2023/04/28 01:57:27;;;;;;;0.13;0.13;;;13.60;99.90;;;;;;5052743;28;20032;-76
2023/04/28 01:59:52;;;;;;;0.20;0.20;;;13.60;99.90;;;;;;5052739;28;20399;-75
2023/04/28 02:02:18;;;;;;;0.10;0.10;;;13.60;99.90;;;;;;5058929;28;20029;-75
2023/04/28 02:04:44;;;;;;;0.37;0.37;;;13.50;99.90;;;;;;5055797;28;20772;-75
2023/04/28 02:07:10;;;;;;;0.00;0.00;;;13.50;99.90;;;;;;5038992;28;20035;-76
2023/04/28 02:09:35;;;;;;;0.10;0.10;;;13.40;99.90;;;;;;5051998;28;20051;-75
2023/04/28 02:12:01;;;;;;;1.30;0.70;;;13.40;99.90;;;;;;5053363;28;20074;-75
2023/04/28 02:14:27;;;;;;;0.15;0.15;;;13.40;99.90;;;;;;5055400;28;20078;-76
2023/04/28 02:16:53;;;;;;;0.00;0.00;;;13.30;99.90;;;;;;5050380;28;20028;-76
2023/04/28 02:19:19;;;;;;;0.22;0.22;;;13.20;99.90;;;;;;5056029;28;20036;-76
2023/04/28 02:21:45;;;;;;;0.35;0.35;;;13.10;99.90;;;;;;5061057;28;20028;-77
2023/04/28 02:24:10;;;;;;;0.30;0.30;;;13.10;99.90;;;;;;5057603;28;20028;-76
2023/04/28 02:26:36;;;;;;;0.10;0.10;;;13.20;99.90;;;;;;5049699;28;20028;-76
2023/04/28 02:29:05;;;;;;;0.10;0.10;;;13.20;99.90;;;;;;5055537;28;20392;-77
2023/04/28 02:31:31;;;;;;;0.00;0.00;;;13.10;99.90;;;;;;5061572;28;20032;-76
2023/04/28 02:33:56;;;;;;;0.00;0.00;;;13.00;99.90;;;;;;5055735;28;20058;-77
2023/04/28 02:36:22;;;;;;;0.10;0.10;;;13.10;99.90;;;;;;5055082;28;20032;-77
2023/04/28 02:38:50;;;;;;;0.30;0.30;;;13.10;99.90;;;;;;5055328;28;20033;-77
2023/04/28 02:41:16;;;;;;;0.10;0.10;;;13.10;99.90;;;;;;5041959;28;20028;-77
2023/04/28 02:43:42;;;;;;;0.10;0.10;;;13.10;99.90;;;;;;5063003;28;20105;-77
2023/04/28 02:46:07;;;;;;;0.00;0.00;;;13.10;99.90;;;;;;5066159;28;20448;-76
2023/04/28 02:48:34;;;;;;;0.00;0.00;;;13.10;99.90;;;;;;5065149;28;20024;-76
2023/04/28 02:51:01;;;;;;;0.00;0.00;;;13.10;99.90;;;;;;5057163;28;20439;-76
2023/04/28 02:53:27;;;;;;;0.10;0.10;;;13.00;99.90;;;;;;5063176;28;20110;-76
2023/04/28 02:55:53;;;;;;;0.10;0.10;;;13.00;99.90;;;;;;5065834;28;20029;-77
2023/04/28 02:58:19;;;;;;;0.20;0.20;;;13.10;99.90;;;;;;5057011;28;20030;-76
2023/04/28 03:00:45;;;;;;;0.10;0.10;;;13.00;99.90;;;;;;5056732;28;20013;-77
2023/04/28 03:03:10;;;;;;;0.03;0.03;;;13.00;99.90;;;;;;5063825;28;20278;-76
2023/04/28 03:05:36;;;;;;;0.10;0.10;;;13.00;99.90;;;;;;5064990;28;20078;-76
2023/04/28 03:08:02;;;;;;;0.33;0.33;;;13.00;99.90;;;;;;5063164;28;20103;-76
2023/04/28 03:10:28;;;;;;;0.15;0.15;;;13.00;99.90;;;;;;5045687;28;20033;-75
2023/04/28 03:12:53;;;;;;;0.10;0.10;;;13.00;99.90;;;;;;5060286;28;20028;-75
2023/04/28 03:15:19;;;;;;;0.33;0.33;;;13.00;99.90;;;;;;5059742;28;20036;-75
2023/04/28 03:17:45;;;;;;;0.10;0.10;;;13.10;99.90;;;;;;5065483;28;20032;-75
2023/04/28 03:20:11;;;;;;;0.20;0.20;;;13.20;99.90;;;;;;5063727;28;20163;-75
2023/04/28 03:22:37;;;;;;;0.10;0.10;;;13.20;99.90;;;;;;5043571;28;20040;-75
2023/04/28 03:25:04;;;;;;;0.32;0.32;;;13.30;99.90;;;;;;5064986;28;20020;-76
2023/04/28 03:27:30;;;;;;;;;;;13.30;99.90;;;;;;5046710;28;20105;-76
2023/04/28 03:29:56;;;;;;;0.00;0.00;;;13.20;99.90;;;;;;5055134;28;19962;-76
2023/04/28 03:32:21;;;;;;;0.10;0.10;;;13.20;99.90;;;;;;5061583;28;20899;-76
2023/04/28 03:34:47;;;;;;;0.10;0.10;;;13.20;99.90;;;;;;5063925;28;20025;-76
2023/04/28 03:37:13;;;;;;;0.10;0.10;;;13.20;99.90;;;;;;5051510;28;20021;-76
2023/04/28 03:39:38;;;;;;;0.10;0.10;;;13.10;99.90;;;;;;5062602;28;20025;-76
2023/04/28 03:42:04;;;;;;;0.10;0.10;;;13.10;99.90;;;;;;5060405;28;20025;-75
2023/04/28 03:44:30;;;;;;;0.08;0.08;;;13.00;99.90;;;;;;5044911;28;20458;-75
2023/04/28 03:46:56;;;;;;;0.28;0.28;;;13.00;99.90;;;;;;5061423;28;20052;-75
2023/04/28 03:49:21;;;;;;;0.20;0.20;;;12.90;99.90;;;;;;5040338;28;20056;-76
2023/04/28 03:51:48;;;;;;;0.00;0.00;;;12.80;99.90;;;;;;5036744;28;20021;-76
2023/04/28 03:54:14;;;;;;;;;;;12.80;99.90;;;;;;5062498;28;20056;-76
2023/04/28 03:56:40;;;;;;;0.10;0.10;;;12.70;99.90;;;;;;5061147;28;20711;-76
2023/04/28 03:59:05;;;;;;;0.10;0.10;;;12.70;99.90;;;;;;5056444;28;20102;-76
2023/04/28 04:01:31;;;;;;;0.30;0.30;;;12.60;99.90;;;;;;5037110;28;20041;-76
2023/04/28 04:03:57;;;;;;;0.10;0.10;;;12.60;99.90;;;;;;5061125;28;20029;-76
2023/04/28 04:06:23;;;;;;;0.10;0.10;;;12.70;99.90;;;;;;5055222;28;20033;-76
2023/04/28 04:08:48;;;;;;;0.20;0.20;;;12.60;99.90;;;;;;5053698;28;20773;-76
2023/04/28 04:11:14;;;;;;;0.20;0.20;;;12.60;99.90;;;;;;5059151;28;20021;-76
2023/04/28 04:13:40;;;;;;;0.80;0.80;;;12.60;99.90;;;;;;5064720;28;20044;-76
2023/04/28 04:16:06;;;;;;;0.08;0.08;;;12.60;99.90;;;;;;5055157;28;20033;-77
2023/04/28 04:18:32;;;;;;;0.00;0.00;;;12.60;99.90;;;;;;5064000;28;20135;-76
2023/04/28 04:20:57;;;;;;;0.30;0.30;;;12.60;99.90;;;;;;5032182;28;20036;-76
2023/04/28 04:23:23;;;;;;;0.00;0.00;;;12.60;99.90;;;;;;5057933;28;20033;-76
2023/04/28 04:25:49;;;;;;;0.10;0.10;;;12.60;99.90;;;;;;5062889;28;20036;-76
2023/04/28 04:28:15;;;;;;;0.52;0.22;;;12.60;99.90;;;;;;5062754;28;20021;-76
2023/04/28 04:30:41;;;;;;;0.10;0.10;;;12.60;99.90;;;;;;5058007;28;20025;-77
2023/04/28 04:33:07;;;;;;;0.10;0.10;;;12.80;99.90;;;;;;5062321;28;20040;-78
2023/04/28 04:35:33;;;;;;;0.05;0.05;;;12.80;99.90;;;;;;5037155;28;20082;-77
2023/04/28 04:38:00;;;;;;;0.00;0.00;;;12.90;99.90;;;;;;5059810;28;20056;-76
2023/04/28 04:40:26;;;;;;;0.20;0.20;;;13.00;99.90;;;;;;5057994;28;20868;-77
2023/04/28 04:42:51;;;;;;;0.10;0.10;;;12.90;99.90;;;;;;5060967;28;20036;-75
2023/04/28 04:45:17;;;;;;;0.10;0.10;;;12.90;99.90;;;;;;5044857;28;20109;-77
2023/04/28 04:47:43;;;;;;;0.25;0.25;;;12.90;99.90;;;;;;5056694;28;20021;-76
2023/04/28 04:50:10;;;;;;;0.00;0.00;;;12.90;99.90;;;;;;5049140;28;20029;-75
2023/04/28 04:52:36;;;;;;;0.10;0.10;;;13.00;99.90;;;;;;5049120;28;20484;-75
2023/04/28 04:55:02;;;;;;;0.47;0.30;;;13.10;99.90;;;;;;5050557;28;20059;-75
2023/04/28 04:57:27;;;;;;;0.32;0.32;;;13.10;99.90;;;;;;5032013;28;20411;-76
2023/04/28 04:59:53;;;;;;;0.10;0.10;;;13.10;99.90;;;;;;5051991;28;20071;-75
2023/04/28 05:02:19;;;;;;;0.10;0.10;;;13.20;99.90;;;;;;5054954;28;20494;-75
2023/04/28 05:04:45;;;;;;;0.00;0.00;;;13.30;99.90;;;;;;5053820;28;20024;-76
2023/04/28 05:07:11;;;;;;;0.10;0.10;;;13.30;99.90;;;;;;5036373;28;20540;-76
2023/04/28 05:09:37;;;;;;;0.10;0.10;;;13.30;99.90;;;;;;5051382;28;20079;-76
2023/04/28 05:12:03;;;;;;;0.22;0.22;;;13.30;99.90;;;;;;5053177;28;20040;-76
2023/04/28 05:14:28;;;;;;;0.10;0.10;;;13.40;99.90;;;;;;5050025;28;20132;-77
2023/04/28 05:16:54;;;;;;;0.10;0.10;;;13.40;99.90;;;;;;5047784;28;20028;-76
2023/04/28 05:19:20;;;;;;;0.73;0.67;;;13.50;99.90;;;;;;5051293;28;20029;-76
2023/04/28 05:21:46;;;;;;;0.00;0.00;;;13.70;99.90;;;;;;5044242;28;20028;-75
2023/04/28 05:24:13;;;;;;;0.32;0.32;;;13.90;99.90;;;;;;5047340;28;20574;-76
2023/04/28 05:26:39;;;;;;;0.00;0.00;;;13.90;99.90;;;;;;5049493;28;20459;-76
2023/04/28 05:29:05;;;;;;;0.25;0.25;;;13.90;99.90;;;;;;5048039;28;20086;-77
2023/04/28 05:31:31;;;;;;;0.20;0.20;;;14.00;99.90;;;;;;5054733;28;20561;-76
2023/04/28 05:33:57;;;;;;;0.07;0.07;;;14.20;99.90;;;;;;5054027;28;20036;-75
2023/04/28 05:36:23;;;;;;;0.00;0.00;;;14.20;99.90;;;;;;5053343;28;20029;-75
2023/04/28 05:38:49;;;;;;;3.33;0.57;;;14.10;99.90;;;;;;5051321;28;20446;-75
2023/04/28 05:41:15;;;;;;;0.10;0.10;;;14.00;99.90;;;;;;5047078;28;20021;-75
2023/04/28 05:43:40;;;;;;;3.05;0.40;;;14.10;99.90;;;;;;5052101;28;20141;-75
2023/04/28 05:46:06;;;;;;;0.00;0.00;;;14.00;99.90;;;;;;5049986;28;20103;-75
2023/04/28 05:48:32;;;;;;;0.10;0.10;;;14.10;99.90;;;;;;5046728;28;20073;-76
2023/04/28 05:50:57;;;;;;;0.10;0.10;;;14.10;99.90;;;;;;5060354;28;20480;-75
2023/04/28 05:53:23;;;;;;;0.00;0.00;;;14.00;99.90;;;;;;5041777;28;20140;-76
2023/04/28 05:55:49;;;;;;;0.00;0.00;;;14.10;99.90;;;;;;5044792;28;20814;-76
2023/04/28 05:58:15;;;;;;;0.27;0.27;;;14.30;99.90;;;;;;5030097;28;20024;-76
2023/04/28 06:00:40;;;;;;;0.05;0.05;;;14.30;99.90;;;;;;5048801;28;20029;-76
2023/04/28 06:03:09;;;;;;;0.10;0.10;;;14.20;99.90;;;;;;5051184;28;20082;-76
2023/04/28 06:05:35;;;;;;;0.10;0.10;;;14.10;99.90;;;;;;5042086;28;20033;-76
2023/04/28 06:08:02;;;;;;;0.00;0.00;;;14.10;99.90;;;;;;5024441;28;20083;-76
2023/04/28 06:10:28;;;;;;;0.45;0.45;;;14.40;99.90;;;;;;5054536;28;20031;-76
2023/04/28 06:12:54;;;;;;;0.23;0.23;;;14.70;99.90;;;;;;5030746;28;20041;-77
2023/04/28 06:15:19;;;;;;;0.40;0.40;;;15.10;99.90;;;;;;5049651;28;20052;-76
2023/04/28 06:17:46;;;;;;;0.10;0.10;;;15.90;99.90;;;;;;5050285;28;20019;-77
2023/04/28 06:20:12;;;;;;;0.00;0.00;;;15.40;99.90;;;;;;5046782;28;20526;-75
2023/04/28 06:22:39;;;;;;;0.10;0.10;;;15.30;99.90;;;;;;5054463;28;20027;-75
2023/04/28 06:25:17;;;;;;;0.10;0.10;;;15.20;99.90;;;;;;5053847;28;20032;-76
2023/04/28 06:27:42;;;;;;;0.00;0.00;;;15.30;99.90;;;;;;5051391;28;20483;-78
2023/04/28 06:30:08;;;;;;;0.10;0.10;;;15.40;99.90;;;;;;5064532;28;20031;-78
2023/04/28 06:32:34;;;;;;;0.00;0.00;;;15.50;99.90;;;;;;5064010;28;20126;-77
2023/04/28 06:35:00;;;;;;;0.10;0.10;;;15.40;99.90;;;;;;5063868;28;20194;-77
2023/04/28 06:37:26;;;;;;;0.00;0.00;;;15.60;99.90;;;;;;5045252;28;20819;-77
2023/04/28 06:39:51;;;;;;;0.20;0.20;;;15.60;99.90;;;;;;5064572;28;20058;-77
2023/04/28 06:42:19;;;;;;;0.03;0.03;;;15.60;99.90;;;;;;5035801;28;20391;-77
2023/04/28 06:44:45;;;;;;;0.08;0.08;;;15.50;99.90;;;;;;5066041;28;20020;-77
2023/04/28 06:47:10;;;;;;;0.20;0.20;;;15.30;99.90;;;;;;5064993;28;20123;-77
2023/04/28 06:49:36;;;;;;;0.00;0.00;;;15.30;99.90;;;;;;5065820;28;20029;-77
2023/04/28 06:52:02;;;;;;;0.10;0.10;;;15.30;99.90;;;;;;5055282;28;20257;-78
2023/04/28 06:54:28;;;;;;;0.00;0.00;;;15.30;99.90;;;;;;5047004;28;20060;-78
2023/04/28 06:56:53;;;;;;;0.30;0.30;;;15.20;99.90;;;;;;5065293;28;20029;-78
2023/04/28 06:59:19;;;;;;;0.10;0.10;;;15.20;99.90;;;;;;5065302;28;20029;-78
2023/04/28 07:01:45;;;;;;;0.67;0.47;;;15.20;99.90;;;;;;5064505;28;20119;-76
2023/04/28 07:04:10;;;;;;;0.10;0.10;;;15.30;99.90;;;;;;5064911;28;20028;-77
2023/04/28 07:06:36;;;;;;;0.20;0.20;;;15.30;99.90;;;;;;5038672;28;20024;-77
2023/04/28 07:09:03;;;;;;;0.10;0.10;;;15.40;99.90;;;;;;5040477;28;20036;-78
2023/04/28 07:11:29;;;;;;;0.10;0.10;;;15.30;99.90;;;;;;5052583;28;20028;-77
2023/04/28 07:13:54;;;;;;;0.10;0.10;;;15.40;99.90;;;;;;5058192;28;20033;-76
2023/04/28 07:16:21;;;;;;;0.30;0.30;;;15.60;99.90;;;;;;5059535;28;20032;-77
2023/04/28 07:18:46;;;;;;;0.00;0.00;;;15.80;99.90;;;;;;5059340;28;20028;-78
2023/04/28 07:21:12;;;;;;;0.50;0.23;;;16.10;99.90;;;;;;5064079;28;20077;-77
2023/04/28 07:23:39;;;;;;;0.00;0.00;;;16.40;99.90;;;;;;5063554;28;20149;-78
2023/04/28 07:26:05;;;;;;;0.22;0.22;;;16.60;99.90;;;;;;5064944;28;20023;-78
2023/04/28 07:28:30;;;;;;;0.07;0.07;;;17.90;99.90;;;;;;5064974;28;20410;-79
2023/04/28 07:30:56;;;;;;;0.10;0.10;;;17.90;99.90;;;;;;5063982;28;20104;-77
2023/04/28 07:33:22;;;;;;;0.03;0.03;;;17.70;99.90;;;;;;5064161;28;20090;-78
2023/04/28 07:35:48;;;;;;;0.00;0.00;;;17.10;99.90;;;;;;5042932;28;20033;-78
2023/04/28 07:38:14;;;;;;;0.10;0.10;;;17.10;99.90;;;;;;5057372;28;20072;-78
2023/04/28 07:40:42;;;;;;;0.00;0.00;;;17.50;99.90;;;;;;5061123;28;20542;-77
2023/04/28 07:43:08;;;;;;;0.10;0.10;;;19.00;99.90;;;;;;5063216;28;20364;-77
2023/04/28 07:45:37;;;;;;;0.00;0.00;;;18.30;99.90;;;;;;5042091;28;20055;-78
2023/04/28 07:48:03;;;;;;;0.10;0.10;;;17.40;99.90;;;;;;5065063;28;20028;-78
2023/04/28 07:50:29;;;;;;;0.13;0.13;;;17.40;99.90;;;;;;5061577;28;20033;-78
2023/04/28 07:52:55;;;;;;;0.10;0.10;;;17.70;99.90;;;;;;5054379;28;20048;-76
2023/04/28 07:55:20;;;;;;;0.00;0.00;;;18.30;99.90;;;;;;5062067;28;20083;-78
2023/04/28 07:57:46;;;;;;;2.03;0.50;;;18.70;99.90;;;;;;5063924;28;20028;-78
2023/04/28 08:00:13;;;;;;;0.43;0.40;;;18.70;99.90;;;;;;5061235;28;20036;-78
2023/04/28 08:02:38;;;;;;;0.00;0.00;;;19.20;99.90;;;;;;5060612;28;20029;-78
2023/04/28 08:05:05;;;;;;;0.00;0.00;;;19.40;99.90;;;;;;5059592;28;20028;-78
2023/04/28 08:07:31;;;;;;;0.00;0.00;;;23.30;99.80;;;;;;5057593;28;20458;-78
2023/04/28 08:09:57;;;;;;;0.00;0.00;;;25.80;90.70;;;;;;5040157;28;20637;-78
2023/04/28 08:12:23;;;;;;;0.00;0.00;;;23.90;92.20;;;;;;5060120;28;20035;-79
2023/04/28 08:14:48;;;;;;;0.10;0.10;;;22.50;94.50;;;;;;5056635;28;20294;-78
2023/04/28 08:17:14;;;;;;;0.00;0.00;;;22.90;94.10;;;;;;5045727;28;20035;-78
2023/04/28 08:19:40;;;;;;;0.00;0.00;;;23.90;95.20;;;;;;5051998;28;20045;-78
2023/04/28 08:22:06;;;;;;;0.00;0.00;;;26.50;90.90;;;;;;5040491;28;20278;-78
2023/04/28 08:24:35;;;;;;;0.00;0.00;;;27.80;84.90;;;;;;5059872;28;20033;-77
2023/04/28 08:27:04;;;;;;;0.00;0.00;;;28.20;79.50;;;;;;5045895;28;20111;-78
2023/04/28 08:29:31;;;;;;;0.10;0.10;;;29.30;75.20;;;;;;5063149;28;20029;-78
2023/04/28 08:31:57;;;;;;;0.00;0.00;;;29.90;74.60;;;;;;5062725;28;20093;-78
2023/04/28 08:34:23;;;;;;;0.00;0.00;;;30.00;70.90;;;;;;5044391;28;20398;-79
2023/04/28 08:36:50;;;;;;;0.00;0.00;;;26.50;74.80;;;;;;5048990;28;20033;-79
2023/04/28 08:39:16;;;;;;;0.00;0.00;;;27.90;78.50;;;;;;5062821;28;20844;-79
2023/04/28 08:41:42;;;;;;;0.03;0.03;;;30.30;69.40;;;;;;5063238;28;20029;-79
2023/04/28 08:44:08;;;;;;;0.00;0.00;;;29.80;68.40;;;;;;5063166;28;20115;-79
2023/04/28 08:46:36;;;;;;;0.00;0.00;;;27.30;73.40;;;;;;5061256;28;20086;-78
2023/04/28 08:49:05;;;;;;;0.00;0.00;;;28.10;69.90;;;;;;5059702;28;20024;-79
2023/04/28 08:51:37;;;;;;;0.00;0.00;;;26.50;74.30;;;;;;5041935;28;20359;-79
2023/04/28 08:54:04;;;;;;;0.95;0.40;;;25.70;76.50;;;;;;5061053;28;20062;-79
2023/04/28 08:56:36;;;;;;;0.00;0.00;;;24.80;80.60;;;;;;5056605;28;20025;-79
2023/04/28 08:59:03;;;;;;;2.00;0.68;;;24.20;83.10;;;;;;5058451;28;20025;-79
2023/04/28 09:01:30;;;;;;;0.00;0.00;;;24.20;82.80;;;;;;5039128;28;20119;-78
2023/04/28 09:03:56;;;;;;;0.00;0.00;;;26.20;80.70;;;;;;5059071;28;20060;-80
2023/04/28 09:06:22;;;;;;;0.00;0.00;;;26.90;75.10;;;;;;5054317;28;20120;-79
2023/04/28 09:08:48;;;;;;;0.00;0.00;;;26.10;76.90;;;;;;5037125;28;20028;-79
2023/04/28 09:11:15;;;;;;;;;;;26.60;76.60;;;;;;5058643;28;20035;-78
2023/04/28 09:13:41;;;;;;;0.00;0.00;;;27.00;75.80;;;;;;5056892;28;19923;-80
2023/04/28 09:16:07;;;;;;;0.00;0.00;;;28.00;73.20;;;;;;5039460;28;20033;-79
2023/04/28 09:18:32;;;;;;;0.10;0.10;;;27.60;72.80;;;;;;5055248;28;20032;-78
2023/04/28 09:21:03;;;;;;;0.22;0.22;;;26.00;75.30;;;;;;5031709;28;20025;-79
2023/04/28 09:23:29;;;;;;;0.15;0.15;;;25.00;79.70;;;;;;5060467;28;20021;-79
2023/04/28 09:26:05;;;;;;;0.00;0.00;;;25.10;82.10;;;;;;5059997;28;20027;-78
2023/04/28 09:28:32;;;;;;;0.20;0.15;;;26.30;81.50;;;;;;5062257;28;20021;-79
2023/04/28 09:30:58;;;;;;;0.10;0.10;;;25.10;82.30;;;;;;5060662;28;20807;-79
2023/04/28 09:33:24;;;;;;;0.00;0.00;;;24.20;83.60;;;;;;5061700;28;20131;-79
2023/04/28 09:35:50;;;;;;;0.00;0.00;;;24.40;84.00;;;;;;5048258;28;20041;-78
2023/04/28 09:38:17;;;;;;;0.32;0.32;;;24.90;84.50;;;;;;5052874;28;20044;-79
2023/04/28 09:40:56;;;;;;;0.10;0.10;;;26.20;81.10;;;;;;5057318;28;20032;-78
2023/04/28 09:43:25;;;;;;;0.10;0.10;;;26.10;79.50;;;;;;5059364;28;20020;-79
2023/04/28 09:45:51;;;;;;;0.00;0.00;;;27.20;77.10;;;;;;5035405;28;20542;-79
2023/04/28 09:48:29;;;;;;;0.25;0.25;;;28.90;72.20;;;;;;5061345;28;20044;-79
2023/04/28 09:50:55;;;;;;;0.00;0.00;;;28.00;72.90;;;;;;5062690;28;20040;-78
2023/04/28 09:53:23;;;;;;;0.08;0.08;;;27.50;75.40;;;;;;5060804;28;20033;-79
2023/04/28 09:55:51;;;;;;;0.20;0.20;;;26.90;73.80;;;;;;5061176;28;20091;-78
2023/04/28 09:58:20;;;;;;;0.00;0.00;;;28.70;75.80;;;;;;5060962;28;20043;-79
2023/04/28 10:00:51;;;;;;;0.00;0.00;;;28.90;75.30;;;;;;5042315;28;20028;-79
2023/04/28 10:03:19;;;;;;;0.00;0.00;;;28.50;75.00;;;;;;5057284;28;20025;-79
2023/04/28 10:05:47;;;;;;;0.00;0.00;;;29.50;70.60;;;;;;5034047;28;20059;-78
2023/04/28 10:08:13;;;;;;;0.00;0.00;;;30.30;68.60;;;;;;5055307;28;20031;-78
2023/04/28 10:10:40;;;;;;;1.55;0.38;;;32.60;66.70;;;;;;5059061;28;20060;-79
2023/04/28 10:13:07;;;;;;;0.00;0.00;;;32.80;60.70;;;;;;5035356;28;20040;-79
2023/04/28 10:15:34;;;;;;;0.00;0.00;;;30.40;62.20;;;;;;5037157;28;20059;-79
2023/04/28 10:18:01;;;;;;;0.00;0.00;;;29.20;63.90;;;;;;5052129;28;20542;-78
2023/04/28 10:20:30;;;;;;;0.08;0.08;;;28.90;64.00;;;;;;5056448;28;20025;-80
2023/04/28 10:23:23;;;;;;;0.00;0.00;;;29.10;65.70;;;;;;5039497;28;20469;-78
2023/04/28 10:25:55;;;;;;;0.00;0.00;;;29.20;63.10;;;;;;5061503;28;20792;-78
2023/04/28 10:28:22;;;;;;;0.00;0.00;;;28.60;66.90;;;;;;5061108;28;20058;-79
2023/04/28 10:31:06;;;;;;;;;;;28.70;67.40;;;;;;5061138;28;20475;-78
2023/04/28 10:33:32;;;;;;;0.38;0.38;;;27.80;68.80;;;;;;5042239;28;19916;-79
2023/04/28 10:35:58;;;;;;;0.10;0.10;;;28.00;69.80;;;;;;5055150;28;20070;-79
2023/04/28 10:38:23;;;;;;;0.00;0.00;;;27.90;69.20;;;;;;5038615;28;20054;-78
2023/04/28 10:40:50;;;;;;;0.10;0.10;;;27.80;67.90;;;;;;5057990;28;20024;-78
2023/04/28 10:43:25;;;;;;;;;;;27.80;65.20;;;;;;5031415;28;20024;-78
2023/04/28 10:46:00;;;;;;;;;;;27.50;64.80;;;;;;5061501;28;19904;-78
2023/04/28 10:48:26;;;;;;;0.00;0.00;;;27.40;65.60;;;;;;5058429;28;20011;-79
2023/04/28 10:51:08;;;;;;;0.00;0.00;;;27.40;67.10;;;;;;5061632;28;20017;-77
2023/04/28 10:53:46;;;;;;;0.00;0.00;;;27.20;64.70;;;;;;5058410;28;20052;-78
2023/04/28 10:56:20;;;;;;;0.00;0.00;;;27.70;68.40;;;;;;5061007;28;20040;-79
2023/04/28 10:58:59;;;;;;;0.00;0.00;;;27.60;65.20;;;;;;5065267;28;20017;-78
2023/04/28 11:01:27;;;;;;;0.10;0.10;;;28.00;65.00;;;;;;5061443;28;20020;-77
2023/04/28 11:06:38;;;;;;;0.00;0.00;;;28.10;65.10;;;;;;5057677;28;20033;-78
2023/04/28 11:09:13;;;;;;;0.00;0.00;;;28.50;66.20;;;;;;5058793;28;20086;-78
2023/04/28 11:11:57;;;;;;;0.00;0.00;;;28.30;65.40;;;;;;5056084;28;20033;-78
2023/04/28 11:14:34;;;;;;;0.65;0.22;;;27.60;64.30;;;;;;5055841;28;20202;-79
2023/04/28 11:17:07;;;;;;;0.00;0.00;;;27.60;65.20;;;;;;5059002;28;20098;-78
2023/04/28 11:19:36;;;;;;;0.38;0.32;;;27.10;65.20;;;;;;5053582;28;20033;-78
2023/04/28 11:22:08;;;;;;;0.00;0.00;;;27.10;63.70;;;;;;5040846;28;20025;-78
2023/04/28 11:24:34;;;;;;;0.00;0.00;;;26.80;63.50;;;;;;5063908;28;20028;-79
2023/04/28 11:27:01;;;;;;;0.00;0.00;;;26.90;66.60;;;;;;5064939;28;20036;-78
2023/04/28 11:29:35;;;;;;;0.00;0.00;;;26.90;68.00;;;;;;5062183;28;20255;-79
2023/04/28 11:32:02;;;;;;;0.00;0.00;;;27.10;71.60;;;;;;5062280;28;20116;-79
2023/04/28 11:34:28;;;;;;;0.00;0.00;;;27.20;68.40;;;;;;5064625;28;20032;-78
2023/04/28 11:36:54;;;;;;;0.00;0.00;;;27.00;68.70;;;;;;5062468;28;20039;-79
2023/04/28 11:39:30;;;;;;;0.00;0.00;;;26.50;68.50;;;;;;5064787;28;20027;-78
2023/04/28 11:41:58;;;;;;;0.10;0.10;;;26.10;66.50;;;;;;5063818;28;20037;-79
2023/04/28 11:44:28;;;;;;;0.00;0.00;;;26.20;70.20;;;;;;5063767;28;20063;-79
2023/04/28 11:46:59;;;;;;;0.15;0.15;;;26.30;69.40;;;;;;5062315;28;20029;-79
2023/04/28 11:49:29;;;;;;;0.00;0.00;;;26.30;69.40;;;;;;5049879;28;20114;-77
2023/04/28 11:51:56;;;;;;;0.00;0.00;;;26.30;74.60;;;;;;5043350;28;20892;-78
2023/04/28 11:54:26;;;;;;;0.63;0.63;;;26.10;73.00;;;;;;5061704;28;20049;-79
2023/04/28 11:56:53;;;;;;;0.00;0.00;;;26.00;77.10;;;;;;5059912;28;20090;-79
2023/04/28 11:59:29;;;;;;;0.00;0.00;;;25.70;71.10;;;;;;5057716;28;20021;-79
2023/04/28 12:02:00;;;;;;;;;;;25.70;69.60;;;;;;5042968;28;20530;-77
2023/04/28 12:04:31;;;;;;;0.00;0.00;;;25.80;69.10;;;;;;5061110;28;20336;-79
2023/04/28 12:07:15;;;;;;;1.05;0.47;;;25.90;68.20;;;;;;5059594;28;20107;-79
2023/04/28 12:09:42;;;;;;;0.00;0.00;;;26.00;69.30;;;;;;5057877;28;20024;-79
2023/04/28 12:12:26;;;;;;;0.10;0.10;;;26.00;66.60;;;;;;5060946;28;20035;-79
2023/04/28 12:15:01;;;;;;;0.08;0.08;;;25.80;65.00;;;;;;5057409;28;20109;-79
2023/04/28 12:17:28;;;;;;;0.00;0.00;;;25.60;66.60;;;;;;5059114;28;20061;-79
2023/04/28 12:19:55;;;;;;;0.00;0.00;;;25.50;65.80;;;;;;5059418;28;20108;-79
2023/04/28 12:22:21;;;;;;;0.00;0.00;;;25.90;73.20;;;;;;5053284;28;20028;-79
2023/04/28 12:25:07;;;;;;;2.05;0.35;;;25.90;69.20;;;;;;5063350;28;20021;-78
2023/04/28 12:27:33;;;;;;;0.52;0.20;;;26.00;68.10;;;;;;5062423;28;20108;-78
2023/04/28 12:29:59;;;;;;;0.00;0.00;;;26.10;69.70;;;;;;5044807;28;20474;-78
2023/04/28 12:32:38;;;;;;;0.00;0.00;;;26.00;76.40;;;;;;5050840;28;20024;-77
2023/04/28 12:55:20;;;;;;;0.00;0.00;;;26.10;69.20;;;;;;5037712;28;20091;-79
2023/04/28 12:57:46;;;;;;;0.10;0.10;;;26.10;66.20;;;;;;5056501;28;20055;-77
2023/04/28 13:00:15;;;;;;;0.32;0.22;;;25.90;65.10;;;;;;5059197;28;20024;-78
2023/04/28 13:02:41;;;;;;;0.00;0.00;;;26.00;65.40;;;;;;5059081;28;20083;-77
2023/04/28 13:05:08;;;;;;;0.00;0.00;;;26.00;66.30;;;;;;5040496;28;20453;-79
2023/04/28 13:07:34;;;;;;;0.00;0.00;;;26.00;65.00;;;;;;5039345;28;21218;-78
2023/04/28 13:09:59;;;;;;;0.45;0.32;;;26.10;66.50;;;;;;5043219;28;20532;-78